UAE725 OMDB-HTDA
Flight info
| Callsign | UAE725 |
|---|---|
| Flight time | 5h 10m |
| Altitude | 36000 |
| Route | ANVIX R401 GIDIS G783 UKRAG L710 KUKDI B400 VEDET UL437 ELAVA |
| Aircraft | B77W/H-SDE1E2E3FGHIJ2J3J4J5M1RWXYZ/LB1D1 |
Departure
| Time | 2026-04-13 12:08 |
|---|---|
| Airport | Dubai International Airport (OMDB) |
Arrival
| Time | 2026-04-13 17:18 |
|---|---|
| Airport | Julius Nyerere International Airport (HTDA) |
| Time | Latitude | Longitude | Altitude | Speed | Heading |
|---|---|---|---|---|---|
| 2026-04-13 11:12 | 25.24436 | 55.37216 | 29 ft | 0 kts | 211° |
| 2026-04-13 11:57 | 25.24438 | 55.37218 | 26 ft | 1 kts | 211° |
| 2026-04-13 11:57 | 25.24453 | 55.37228 | 30 ft | 3 kts | 211° |
| 2026-04-13 11:58 | 25.24470 | 55.37239 | 34 ft | 3 kts | 211° |
| 2026-04-13 11:58 | 25.24484 | 55.37249 | 24 ft | 3 kts | 209° |
| 2026-04-13 11:58 | 25.24500 | 55.37257 | 24 ft | 3 kts | 189° |
| 2026-04-13 11:58 | 25.24515 | 55.37258 | 25 ft | 3 kts | 160° |
| 2026-04-13 11:59 | 25.24527 | 55.37251 | 25 ft | 3 kts | 129° |
| 2026-04-13 11:59 | 25.24537 | 55.37234 | 25 ft | 3 kts | 118° |
| 2026-04-13 11:59 | 25.24546 | 55.37216 | 24 ft | 2 kts | 121° |
| 2026-04-13 11:59 | 25.24549 | 55.37210 | 24 ft | 0 kts | 122° |
| 2026-04-13 12:02 | 25.24547 | 55.37214 | 28 ft | 6 kts | 122° |
| 2026-04-13 12:03 | 25.24506 | 55.37289 | 26 ft | 12 kts | 121° |
| 2026-04-13 12:03 | 25.24460 | 55.37369 | 26 ft | 12 kts | 121° |
| 2026-04-13 12:03 | 25.24415 | 55.37450 | 26 ft | 12 kts | 121° |
| 2026-04-13 12:03 | 25.24371 | 55.37531 | 26 ft | 12 kts | 121° |
| 2026-04-13 12:04 | 25.24327 | 55.37612 | 26 ft | 12 kts | 121° |
| 2026-04-13 12:04 | 25.24282 | 55.37693 | 27 ft | 12 kts | 121° |
| 2026-04-13 12:04 | 25.24261 | 55.37753 | 27 ft | 5 kts | 76° |
| 2026-04-13 12:04 | 25.24286 | 55.37779 | 27 ft | 5 kts | 38° |
| 2026-04-13 12:05 | 25.24313 | 55.37802 | 27 ft | 5 kts | 38° |
| 2026-04-13 12:05 | 25.24343 | 55.37826 | 28 ft | 8 kts | 34° |
| 2026-04-13 12:05 | 25.24431 | 55.37891 | 34 ft | 22 kts | 34° |
| 2026-04-13 12:05 | 25.24560 | 55.37988 | 31 ft | 24 kts | 34° |
| 2026-04-13 12:06 | 25.24699 | 55.38092 | 33 ft | 22 kts | 32° |
| 2026-04-13 12:06 | 25.24775 | 55.38091 | 35 ft | 10 kts | 323° |
| 2026-04-13 12:06 | 25.24809 | 55.38025 | 34 ft | 10 kts | 299° |
| 2026-04-13 12:06 | 25.24826 | 55.37992 | 34 ft | 0 kts | 300° |
| 2026-04-13 12:07 | 25.24864 | 55.37919 | 35 ft | 46 kts | 300° |
| 2026-04-13 12:07 | 25.25195 | 55.37320 | 37 ft | 135 kts | 301° |
| 2026-04-13 12:07 | 25.25816 | 55.36190 | 54 ft | 203 kts | 301° |
| 2026-04-13 12:08 | 25.26587 | 55.34842 | 818 ft | 200 kts | 302° |
| 2026-04-13 12:08 | 25.27320 | 55.33591 | 1877 ft | 199 kts | 302° |
| 2026-04-13 12:08 | 25.28053 | 55.32310 | 2810 ft | 195 kts | 302° |
| 2026-04-13 12:08 | 25.28742 | 55.31013 | 3698 ft | 196 kts | 301° |
| 2026-04-13 12:09 | 25.29323 | 55.29666 | 4482 ft | 202 kts | 286° |
| 2026-04-13 12:09 | 25.29379 | 55.28126 | 5190 ft | 205 kts | 257° |
| 2026-04-13 12:09 | 25.28715 | 55.26761 | 5889 ft | 202 kts | 230° |
| 2026-04-13 12:09 | 25.27777 | 55.25612 | 6484 ft | 200 kts | 240° |
| 2026-04-13 12:10 | 25.27171 | 55.24171 | 6740 ft | 215 kts | 249° |
| 2026-04-13 12:10 | 25.26568 | 55.22633 | 7272 ft | 221 kts | 248° |
| 2026-04-13 12:10 | 25.25918 | 55.21016 | 7524 ft | 241 kts | 248° |
| 2026-04-13 12:10 | 25.25203 | 55.19283 | 7639 ft | 254 kts | 246° |
| 2026-04-13 12:11 | 25.24144 | 55.17681 | 7725 ft | 270 kts | 220° |
| 2026-04-13 12:11 | 25.22387 | 55.16800 | 7887 ft | 292 kts | 194° |
| 2026-04-13 12:11 | 25.20289 | 55.16843 | 8032 ft | 318 kts | 169° |
| 2026-04-13 12:11 | 25.18273 | 55.18029 | 8425 ft | 343 kts | 140° |
| 2026-04-13 12:12 | 25.16856 | 55.20186 | 8863 ft | 353 kts | 121° |
| 2026-04-13 12:12 | 25.15741 | 55.22640 | 9136 ft | 360 kts | 120° |
| 2026-04-13 12:12 | 25.14607 | 55.25120 | 9491 ft | 365 kts | 121° |
| 2026-04-13 12:12 | 25.13436 | 55.27621 | 9873 ft | 368 kts | 121° |
| 2026-04-13 12:13 | 25.12236 | 55.30139 | 10504 ft | 373 kts | 122° |
| 2026-04-13 12:13 | 25.11021 | 55.32666 | 11351 ft | 374 kts | 121° |
| 2026-04-13 12:13 | 25.09867 | 55.35219 | 12199 ft | 378 kts | 118° |
| 2026-04-13 12:13 | 25.08770 | 55.37925 | 13015 ft | 383 kts | 117° |
| 2026-04-13 12:14 | 25.07682 | 55.40630 | 13762 ft | 390 kts | 117° |
| 2026-04-13 12:14 | 25.06560 | 55.43443 | 13971 ft | 412 kts | 116° |
| 2026-04-13 12:14 | 25.05440 | 55.46367 | 14353 ft | 426 kts | 115° |
| 2026-04-13 12:14 | 25.04283 | 55.49416 | 14917 ft | 434 kts | 115° |
| 2026-04-13 12:15 | 25.03103 | 55.52500 | 15574 ft | 439 kts | 115° |
| 2026-04-13 12:15 | 25.01898 | 55.55608 | 16284 ft | 442 kts | 116° |
| 2026-04-13 12:15 | 25.00466 | 55.58619 | 16961 ft | 445 kts | 123° |
| 2026-04-13 12:15 | 24.98823 | 55.61516 | 17622 ft | 449 kts | 125° |
| 2026-04-13 12:16 | 24.97136 | 55.64429 | 18266 ft | 454 kts | 124° |
| 2026-04-13 12:16 | 24.95471 | 55.67424 | 18837 ft | 459 kts | 124° |
| 2026-04-13 12:16 | 24.93826 | 55.70440 | 19449 ft | 461 kts | 125° |
| 2026-04-13 12:16 | 24.92062 | 55.73310 | 20032 ft | 462 kts | 130° |
| 2026-04-13 12:17 | 24.90133 | 55.76145 | 20646 ft | 464 kts | 131° |
| 2026-04-13 12:17 | 24.88166 | 55.78980 | 21236 ft | 467 kts | 131° |
| 2026-04-13 12:17 | 24.86207 | 55.81868 | 21812 ft | 471 kts | 131° |
| 2026-04-13 12:17 | 24.84264 | 55.84784 | 22379 ft | 475 kts | 130° |
| 2026-04-13 12:18 | 24.82301 | 55.87724 | 22909 ft | 478 kts | 131° |
| 2026-04-13 12:18 | 24.80209 | 55.90471 | 23269 ft | 470 kts | 144° |
| 2026-04-13 12:18 | 24.77476 | 55.92417 | 23618 ft | 460 kts | 162° |
| 2026-04-13 12:18 | 24.74498 | 55.93485 | 23977 ft | 452 kts | 174° |
| 2026-04-13 12:19 | 24.71404 | 55.93792 | 24366 ft | 444 kts | 187° |
| 2026-04-13 12:19 | 24.68313 | 55.93620 | 24733 ft | 447 kts | 189° |
| 2026-04-13 12:19 | 24.65197 | 55.93463 | 25185 ft | 448 kts | 189° |
| 2026-04-13 12:19 | 24.62134 | 55.93003 | 25571 ft | 442 kts | 200° |
| 2026-04-13 12:20 | 24.59272 | 55.91842 | 26002 ft | 437 kts | 210° |
| 2026-04-13 12:20 | 24.56649 | 55.90195 | 26447 ft | 432 kts | 220° |
| 2026-04-13 12:20 | 24.54365 | 55.88082 | 26831 ft | 429 kts | 225° |
| 2026-04-13 12:20 | 24.52139 | 55.85871 | 27217 ft | 433 kts | 225° |
| 2026-04-13 12:21 | 24.49895 | 55.83651 | 27631 ft | 435 kts | 225° |
| 2026-04-13 12:21 | 24.47630 | 55.81435 | 28083 ft | 436 kts | 225° |
| 2026-04-13 12:21 | 24.45351 | 55.79229 | 28485 ft | 437 kts | 225° |
| 2026-04-13 12:21 | 24.43061 | 55.77025 | 28882 ft | 439 kts | 225° |
| 2026-04-13 12:22 | 24.40761 | 55.74817 | 29228 ft | 440 kts | 225° |
| 2026-04-13 12:22 | 24.38457 | 55.72606 | 29677 ft | 439 kts | 225° |
| 2026-04-13 12:22 | 24.36164 | 55.70407 | 30240 ft | 436 kts | 225° |
| 2026-04-13 12:22 | 24.33895 | 55.68231 | 30761 ft | 431 kts | 225° |
| 2026-04-13 12:23 | 24.31646 | 55.66075 | 31286 ft | 427 kts | 225° |
| 2026-04-13 12:23 | 24.29393 | 55.63969 | 31770 ft | 425 kts | 221° |
| 2026-04-13 12:23 | 24.26923 | 55.62175 | 32191 ft | 428 kts | 215° |
| 2026-04-13 12:23 | 24.24287 | 55.60654 | 32601 ft | 428 kts | 211° |
| 2026-04-13 12:24 | 24.21560 | 55.59339 | 33016 ft | 430 kts | 207° |
| 2026-04-13 12:24 | 24.18692 | 55.58362 | 33403 ft | 432 kts | 202° |
| 2026-04-13 12:24 | 24.15786 | 55.57517 | 33797 ft | 431 kts | 201° |
| 2026-04-13 12:24 | 24.12898 | 55.56691 | 34146 ft | 428 kts | 202° |
| 2026-04-13 12:25 | 24.10015 | 55.55855 | 34398 ft | 428 kts | 202° |
| 2026-04-13 12:25 | 24.07137 | 55.55004 | 34590 ft | 429 kts | 202° |
| 2026-04-13 12:25 | 24.04263 | 55.54145 | 34803 ft | 429 kts | 202° |
| 2026-04-13 12:25 | 24.01390 | 55.53286 | 35049 ft | 428 kts | 202° |
| 2026-04-13 12:26 | 23.98551 | 55.52438 | 35266 ft | 428 kts | 202° |
| 2026-04-13 12:26 | 23.95638 | 55.51573 | 35475 ft | 428 kts | 202° |
| 2026-04-13 12:26 | 23.92765 | 55.50720 | 35692 ft | 428 kts | 202° |
| 2026-04-13 12:26 | 23.89923 | 55.49877 | 35859 ft | 428 kts | 202° |
| 2026-04-13 12:27 | 23.87036 | 55.49018 | 35897 ft | 431 kts | 202° |
| 2026-04-13 12:27 | 23.78384 | 55.46454 | 35967 ft | 425 kts | 202° |
| 2026-04-13 12:28 | 23.72697 | 55.44766 | 35973 ft | 422 kts | 202° |
| 2026-04-13 12:28 | 23.67989 | 55.43368 | 35974 ft | 422 kts | 202° |
| 2026-04-13 12:29 | 23.62327 | 55.41688 | 35977 ft | 422 kts | 202° |
| 2026-04-13 12:29 | 23.56644 | 55.40010 | 35972 ft | 424 kts | 201° |
| 2026-04-13 12:30 | 23.50645 | 55.39410 | 35985 ft | 442 kts | 187° |
| 2026-04-13 12:30 | 23.44456 | 55.40397 | 35975 ft | 460 kts | 174° |
| 2026-04-13 12:31 | 23.38304 | 55.42323 | 35961 ft | 464 kts | 173° |
| 2026-04-13 12:31 | 23.32112 | 55.44339 | 35965 ft | 465 kts | 173° |
| 2026-04-13 12:32 | 23.25901 | 55.46325 | 35965 ft | 465 kts | 173° |
| 2026-04-13 12:32 | 23.19694 | 55.48285 | 35961 ft | 465 kts | 173° |
| 2026-04-13 12:33 | 23.13475 | 55.50243 | 35955 ft | 464 kts | 173° |
| 2026-04-13 12:33 | 23.07269 | 55.52197 | 35949 ft | 464 kts | 173° |
| 2026-04-13 12:34 | 23.01071 | 55.54139 | 35950 ft | 463 kts | 173° |
| 2026-04-13 12:34 | 22.94915 | 55.56028 | 35946 ft | 463 kts | 173° |
| 2026-04-13 12:35 | 22.88712 | 55.57924 | 35950 ft | 463 kts | 173° |
| 2026-04-13 12:35 | 22.82516 | 55.59822 | 35946 ft | 463 kts | 173° |
| 2026-04-13 12:36 | 22.76310 | 55.61725 | 35940 ft | 463 kts | 173° |
| 2026-04-13 12:36 | 22.70116 | 55.63622 | 35939 ft | 464 kts | 173° |
| 2026-04-13 12:37 | 22.63897 | 55.65525 | 35930 ft | 465 kts | 173° |
| 2026-04-13 12:37 | 22.57663 | 55.67431 | 35939 ft | 466 kts | 173° |
| 2026-04-13 12:38 | 22.54617 | 55.68363 | 35933 ft | 466 kts | 173° |
| 2026-04-13 12:38 | 22.52391 | 55.69045 | 35944 ft | 466 kts | 173° |
| 2026-04-13 12:39 | 22.49796 | 55.69825 | 35917 ft | 467 kts | 173° |
| 2026-04-13 12:39 | 22.47372 | 55.70575 | 35896 ft | 467 kts | 173° |
| 2026-04-13 12:40 | 22.45084 | 55.71277 | 35875 ft | 468 kts | 172° |
| 2026-04-13 12:40 | 22.42802 | 55.72060 | 35833 ft | 473 kts | 169° |
| 2026-04-13 12:41 | 22.40652 | 55.72992 | 35746 ft | 481 kts | 163° |
| 2026-04-13 12:41 | 22.38896 | 55.73971 | 35636 ft | 488 kts | 160° |
| 2026-04-13 12:41 | 22.35869 | 55.75391 | 35736 ft | 461 kts | 176° |
| 2026-04-13 12:42 | 22.32764 | 55.75731 | 35835 ft | 443 kts | 187° |
| 2026-04-13 12:42 | 22.30832 | 55.75835 | 35881 ft | 448 kts | 182° |
| 2026-04-13 12:42 | 22.27447 | 55.76436 | 35925 ft | 458 kts | 177° |
| 2026-04-13 12:43 | 22.23897 | 55.77066 | 35942 ft | 456 kts | 178° |
| 2026-04-13 12:43 | 22.17710 | 55.78500 | 35926 ft | 452 kts | 183° |
| 2026-04-13 12:44 | 22.11804 | 55.78848 | 35931 ft | 454 kts | 186° |
| 2026-04-13 12:44 | 22.05465 | 55.79212 | 35926 ft | 459 kts | 184° |
| 2026-04-13 12:45 | 22.03030 | 55.79409 | 35923 ft | 461 kts | 184° |
| 2026-04-13 12:45 | 22.00304 | 55.79658 | 35930 ft | 463 kts | 181° |
| 2026-04-13 12:46 | 21.96520 | 55.80055 | 35861 ft | 463 kts | 183° |
| 2026-04-13 12:46 | 21.90137 | 55.80689 | 35904 ft | 457 kts | 182° |
| 2026-04-13 12:47 | 21.87616 | 55.80944 | 35908 ft | 456 kts | 182° |
| 2026-04-13 12:47 | 21.85306 | 55.81180 | 35901 ft | 455 kts | 182° |
| 2026-04-13 12:48 | 21.83103 | 55.81412 | 35887 ft | 455 kts | 182° |
| 2026-04-13 12:48 | 21.80901 | 55.81656 | 35853 ft | 456 kts | 182° |
| 2026-04-13 12:49 | 21.78698 | 55.81914 | 35820 ft | 456 kts | 181° |
| 2026-04-13 12:49 | 21.76663 | 55.82167 | 35775 ft | 457 kts | 181° |
| 2026-04-13 12:50 | 21.75145 | 55.82321 | 35805 ft | 452 kts | 186° |
| 2026-04-13 12:50 | 21.73087 | 55.82204 | 35661 ft | 441 kts | 199° |
| 2026-04-13 12:51 | 21.71275 | 55.81440 | 34874 ft | 436 kts | 218° |
| 2026-04-13 12:51 | 21.68845 | 55.79775 | 34422 ft | 435 kts | 213° |
| 2026-04-13 12:51 | 21.67688 | 55.79091 | 34267 ft | 434 kts | 211° |
| 2026-04-13 12:51 | 21.66105 | 55.78247 | 34078 ft | 433 kts | 209° |
| 2026-04-13 12:52 | 21.63639 | 55.77101 | 33724 ft | 432 kts | 206° |
| 2026-04-13 12:52 | 21.62707 | 55.76712 | 33578 ft | 433 kts | 205° |
| 2026-04-13 12:52 | 21.58104 | 55.75055 | 33581 ft | 430 kts | 202° |
| 2026-04-13 12:53 | 21.57242 | 55.74770 | 33416 ft | 436 kts | 202° |
| 2026-04-13 12:53 | 21.56268 | 55.74455 | 33205 ft | 443 kts | 201° |
| 2026-04-13 12:53 | 21.54329 | 55.73844 | 32942 ft | 452 kts | 201° |
| 2026-04-13 12:53 | 21.51932 | 55.73137 | 33479 ft | 441 kts | 199° |
| 2026-04-13 12:54 | 21.49549 | 55.72679 | 33391 ft | 450 kts | 191° |
| 2026-04-13 12:54 | 21.46210 | 55.72672 | 33628 ft | 452 kts | 181° |
| 2026-04-13 12:55 | 21.44105 | 55.73018 | 33954 ft | 453 kts | 175° |
| 2026-04-13 12:55 | 21.42394 | 55.73489 | 34089 ft | 459 kts | 171° |
| 2026-04-13 12:55 | 21.40190 | 55.74363 | 34241 ft | 468 kts | 163° |
| 2026-04-13 12:56 | 21.37853 | 55.75668 | 34489 ft | 476 kts | 156° |
| 2026-04-13 12:56 | 21.36921 | 55.76306 | 34566 ft | 479 kts | 153° |
| 2026-04-13 12:56 | 21.35224 | 55.77672 | 34723 ft | 487 kts | 148° |
| 2026-04-13 12:57 | 21.33396 | 55.79491 | 34870 ft | 495 kts | 141° |
| 2026-04-13 12:57 | 21.31926 | 55.81204 | 34930 ft | 498 kts | 140° |
| 2026-04-13 12:57 | 21.30401 | 55.82885 | 34937 ft | 496 kts | 146° |
| 2026-04-13 12:58 | 21.28402 | 55.84560 | 34754 ft | 491 kts | 158° |
| 2026-04-13 12:58 | 21.26071 | 55.85744 | 34763 ft | 478 kts | 171° |
| 2026-04-13 12:59 | 21.22152 | 55.86201 | 34941 ft | 452 kts | 187° |
| 2026-04-13 12:59 | 21.19084 | 55.86471 | 35178 ft | 459 kts | 177° |
| 2026-04-13 12:59 | 21.15960 | 55.87177 | 35531 ft | 459 kts | 175° |
| 2026-04-13 13:00 | 21.14715 | 55.87477 | 35674 ft | 458 kts | 175° |
| 2026-04-13 13:00 | 21.11602 | 55.88152 | 35856 ft | 457 kts | 178° |
| 2026-04-13 13:00 | 21.05267 | 55.89062 | 35922 ft | 462 kts | 181° |
| 2026-04-13 13:01 | 20.98851 | 55.89670 | 35923 ft | 469 kts | 182° |
| 2026-04-13 13:01 | 20.92289 | 55.90277 | 35927 ft | 476 kts | 182° |
| 2026-04-13 13:02 | 20.85661 | 55.90922 | 35925 ft | 480 kts | 181° |
| 2026-04-13 13:02 | 20.78993 | 55.91571 | 35921 ft | 482 kts | 181° |
| 2026-04-13 13:03 | 20.72307 | 55.92219 | 35917 ft | 482 kts | 181° |
| 2026-04-13 13:03 | 20.65625 | 55.92867 | 35912 ft | 481 kts | 181° |
| 2026-04-13 13:04 | 20.58964 | 55.93512 | 35912 ft | 480 kts | 181° |
| 2026-04-13 13:04 | 20.52318 | 55.94155 | 35913 ft | 478 kts | 181° |
| 2026-04-13 13:05 | 20.45696 | 55.94795 | 35922 ft | 477 kts | 181° |
| 2026-04-13 13:05 | 20.39105 | 55.95432 | 35910 ft | 472 kts | 181° |
| 2026-04-13 13:06 | 20.32605 | 55.96059 | 35916 ft | 466 kts | 181° |
| 2026-04-13 13:06 | 20.26147 | 55.96676 | 35921 ft | 465 kts | 181° |
| 2026-04-13 13:07 | 20.19741 | 55.97284 | 35921 ft | 465 kts | 181° |
| 2026-04-13 13:07 | 20.13278 | 55.97898 | 35923 ft | 466 kts | 181° |
| 2026-04-13 13:08 | 20.06826 | 55.98439 | 35921 ft | 464 kts | 184° |
| 2026-04-13 13:08 | 20.00378 | 55.98608 | 35924 ft | 464 kts | 185° |
| 2026-04-13 13:09 | 19.93910 | 55.98735 | 35925 ft | 465 kts | 185° |
| 2026-04-13 13:09 | 19.87433 | 55.98884 | 35920 ft | 466 kts | 185° |
| 2026-04-13 13:10 | 19.80946 | 55.99046 | 35919 ft | 466 kts | 184° |
| 2026-04-13 13:10 | 19.74491 | 55.99209 | 35922 ft | 467 kts | 184° |
| 2026-04-13 13:11 | 19.67994 | 55.99372 | 35921 ft | 467 kts | 184° |
| 2026-04-13 13:11 | 19.61479 | 55.99535 | 35926 ft | 468 kts | 184° |
| 2026-04-13 13:12 | 19.54978 | 55.99645 | 35916 ft | 465 kts | 188° |
| 2026-04-13 13:12 | 19.48748 | 55.98284 | 35929 ft | 454 kts | 203° |
| 2026-04-13 13:13 | 19.43127 | 55.95404 | 35932 ft | 448 kts | 213° |
| 2026-04-13 13:13 | 19.37740 | 55.92056 | 35922 ft | 449 kts | 213° |
| 2026-04-13 13:14 | 19.32332 | 55.88728 | 35920 ft | 450 kts | 213° |
| 2026-04-13 13:14 | 19.26926 | 55.85444 | 35920 ft | 451 kts | 213° |
| 2026-04-13 13:15 | 19.22358 | 55.82682 | 35921 ft | 451 kts | 213° |
| 2026-04-13 13:15 | 19.16017 | 55.78849 | 35923 ft | 452 kts | 213° |
| 2026-04-13 13:16 | 19.11467 | 55.76100 | 35923 ft | 453 kts | 213° |
| 2026-04-13 13:16 | 19.05994 | 55.72795 | 35924 ft | 453 kts | 213° |
| 2026-04-13 13:17 | 19.00512 | 55.69489 | 35922 ft | 454 kts | 213° |
| 2026-04-13 13:17 | 18.95016 | 55.66179 | 35923 ft | 454 kts | 213° |
| 2026-04-13 13:18 | 18.89527 | 55.62875 | 35923 ft | 455 kts | 213° |
| 2026-04-13 13:18 | 18.84028 | 55.59566 | 35922 ft | 455 kts | 213° |
| 2026-04-13 13:19 | 18.78523 | 55.56256 | 35925 ft | 455 kts | 213° |
| 2026-04-13 13:19 | 18.73013 | 55.52945 | 35925 ft | 456 kts | 213° |
| 2026-04-13 13:20 | 18.67505 | 55.49638 | 35927 ft | 456 kts | 212° |
| 2026-04-13 13:20 | 18.61977 | 55.46321 | 35929 ft | 456 kts | 212° |
| 2026-04-13 13:21 | 18.56490 | 55.43032 | 35930 ft | 457 kts | 212° |
| 2026-04-13 13:21 | 18.50952 | 55.39714 | 35932 ft | 457 kts | 212° |
| 2026-04-13 13:22 | 18.45414 | 55.36399 | 35931 ft | 458 kts | 212° |
| 2026-04-13 13:22 | 18.39867 | 55.33080 | 35934 ft | 458 kts | 212° |
| 2026-04-13 13:23 | 18.34321 | 55.29765 | 35933 ft | 459 kts | 212° |
| 2026-04-13 13:23 | 18.28756 | 55.26445 | 35930 ft | 459 kts | 212° |
| 2026-04-13 13:24 | 18.23224 | 55.23145 | 35941 ft | 460 kts | 212° |
| 2026-04-13 13:24 | 18.17620 | 55.19804 | 35947 ft | 460 kts | 212° |
| 2026-04-13 13:25 | 18.11943 | 55.16682 | 35945 ft | 463 kts | 206° |
| 2026-04-13 13:26 | 18.03034 | 55.12725 | 35938 ft | 464 kts | 206° |
| 2026-04-13 13:26 | 17.97126 | 55.10098 | 35951 ft | 464 kts | 206° |
| 2026-04-13 13:27 | 17.91178 | 55.07434 | 35949 ft | 465 kts | 206° |
| 2026-04-13 13:27 | 17.85230 | 55.04765 | 35942 ft | 465 kts | 206° |
| 2026-04-13 13:28 | 17.79269 | 55.02093 | 35948 ft | 466 kts | 206° |
| 2026-04-13 13:28 | 17.73310 | 54.99424 | 35950 ft | 466 kts | 206° |
| 2026-04-13 13:29 | 17.67337 | 54.96752 | 35953 ft | 466 kts | 206° |
| 2026-04-13 13:29 | 17.61404 | 54.94099 | 35956 ft | 467 kts | 206° |
| 2026-04-13 13:30 | 17.55432 | 54.91430 | 35959 ft | 467 kts | 206° |
| 2026-04-13 13:30 | 17.49449 | 54.88759 | 35962 ft | 468 kts | 206° |
| 2026-04-13 13:31 | 17.43459 | 54.86086 | 35977 ft | 468 kts | 206° |
| 2026-04-13 13:31 | 17.37466 | 54.83414 | 35972 ft | 468 kts | 206° |
| 2026-04-13 13:32 | 17.31469 | 54.80741 | 35980 ft | 468 kts | 206° |
| 2026-04-13 13:32 | 17.25575 | 54.77853 | 35980 ft | 466 kts | 212° |
| 2026-04-13 13:33 | 17.20116 | 54.74203 | 35976 ft | 465 kts | 215° |
| 2026-04-13 13:33 | 17.14714 | 54.70538 | 35979 ft | 466 kts | 215° |
| 2026-04-13 13:34 | 17.09256 | 54.66872 | 35976 ft | 466 kts | 215° |
| 2026-04-13 13:34 | 17.03778 | 54.63212 | 35974 ft | 467 kts | 214° |
| 2026-04-13 13:35 | 16.98294 | 54.59549 | 35970 ft | 467 kts | 214° |
| 2026-04-13 13:35 | 16.92811 | 54.55887 | 35968 ft | 467 kts | 214° |
| 2026-04-13 13:36 | 16.87331 | 54.52232 | 35957 ft | 467 kts | 214° |
| 2026-04-13 13:36 | 16.81848 | 54.48577 | 35955 ft | 467 kts | 214° |
| 2026-04-13 13:37 | 16.76368 | 54.44926 | 35952 ft | 467 kts | 214° |
| 2026-04-13 13:37 | 16.70927 | 54.41302 | 35945 ft | 467 kts | 214° |
| 2026-04-13 13:38 | 16.65445 | 54.37653 | 35947 ft | 468 kts | 214° |
| 2026-04-13 13:38 | 16.59958 | 54.34003 | 35948 ft | 468 kts | 214° |
| 2026-04-13 13:39 | 16.54464 | 54.30351 | 35947 ft | 468 kts | 214° |
| 2026-04-13 13:39 | 16.48964 | 54.26697 | 35948 ft | 469 kts | 214° |
| 2026-04-13 13:40 | 16.43465 | 54.23047 | 35951 ft | 469 kts | 214° |
| 2026-04-13 13:40 | 16.37954 | 54.19391 | 35944 ft | 469 kts | 214° |
| 2026-04-13 13:41 | 16.32441 | 54.15737 | 35949 ft | 470 kts | 214° |
| 2026-04-13 13:41 | 16.26963 | 54.12107 | 35948 ft | 470 kts | 214° |
| 2026-04-13 13:42 | 16.21437 | 54.08449 | 35949 ft | 470 kts | 214° |
| 2026-04-13 13:42 | 16.15921 | 54.04800 | 35948 ft | 470 kts | 214° |
| 2026-04-13 13:43 | 16.10395 | 54.01146 | 35945 ft | 470 kts | 214° |
| 2026-04-13 13:43 | 16.04866 | 53.97493 | 35945 ft | 471 kts | 214° |
| 2026-04-13 13:44 | 15.99333 | 53.93839 | 35947 ft | 471 kts | 214° |
| 2026-04-13 13:44 | 15.93801 | 53.90188 | 35944 ft | 471 kts | 214° |
| 2026-04-13 13:45 | 15.88266 | 53.86538 | 35947 ft | 471 kts | 214° |
| 2026-04-13 13:45 | 15.82769 | 53.82885 | 35944 ft | 471 kts | 214° |
| 2026-04-13 13:46 | 15.77250 | 53.79192 | 35942 ft | 472 kts | 214° |
| 2026-04-13 13:46 | 15.71728 | 53.75501 | 35942 ft | 472 kts | 214° |
| 2026-04-13 13:47 | 15.66196 | 53.71810 | 35942 ft | 472 kts | 214° |
| 2026-04-13 13:47 | 15.60669 | 53.68127 | 35944 ft | 472 kts | 214° |
| 2026-04-13 13:48 | 15.55137 | 53.64441 | 35944 ft | 472 kts | 214° |
| 2026-04-13 13:48 | 15.49603 | 53.60756 | 35942 ft | 473 kts | 214° |
| 2026-04-13 13:49 | 15.44068 | 53.57074 | 35938 ft | 473 kts | 214° |
| 2026-04-13 13:49 | 15.38527 | 53.53462 | 35938 ft | 474 kts | 213° |
| 2026-04-13 13:50 | 15.32919 | 53.49885 | 35939 ft | 474 kts | 213° |
| 2026-04-13 13:50 | 15.27293 | 53.46295 | 35938 ft | 474 kts | 213° |
| 2026-04-13 13:51 | 15.21678 | 53.42700 | 35937 ft | 474 kts | 213° |
| 2026-04-13 13:51 | 15.16061 | 53.39102 | 35941 ft | 474 kts | 213° |
| 2026-04-13 13:52 | 15.10445 | 53.35505 | 35938 ft | 475 kts | 213° |
| 2026-04-13 13:52 | 15.04864 | 53.31934 | 35936 ft | 475 kts | 213° |
| 2026-04-13 13:53 | 14.99240 | 53.28339 | 35935 ft | 475 kts | 213° |
| 2026-04-13 13:53 | 14.93601 | 53.24735 | 35934 ft | 476 kts | 213° |
| 2026-04-13 13:54 | 14.87970 | 53.21139 | 35933 ft | 476 kts | 213° |
| 2026-04-13 13:54 | 14.82328 | 53.17538 | 35931 ft | 476 kts | 213° |
| 2026-04-13 13:55 | 14.76681 | 53.13936 | 35930 ft | 476 kts | 213° |
| 2026-04-13 13:55 | 14.71074 | 53.10360 | 35931 ft | 477 kts | 213° |
| 2026-04-13 13:56 | 14.65427 | 53.06763 | 35930 ft | 477 kts | 213° |
| 2026-04-13 13:56 | 14.59779 | 53.03143 | 35932 ft | 477 kts | 213° |
| 2026-04-13 13:57 | 14.54139 | 52.99516 | 35931 ft | 478 kts | 213° |
| 2026-04-13 13:57 | 14.48499 | 52.95892 | 35930 ft | 478 kts | 213° |
| 2026-04-13 13:58 | 14.42854 | 52.92269 | 35931 ft | 478 kts | 213° |
| 2026-04-13 13:58 | 14.37194 | 52.88640 | 35929 ft | 479 kts | 213° |
| 2026-04-13 13:59 | 14.31532 | 52.85012 | 35927 ft | 479 kts | 213° |
| 2026-04-13 13:59 | 14.25895 | 52.81402 | 35924 ft | 480 kts | 213° |
| 2026-04-13 14:00 | 14.20226 | 52.77773 | 35924 ft | 480 kts | 213° |
| 2026-04-13 14:00 | 14.14549 | 52.74142 | 35924 ft | 480 kts | 213° |
| 2026-04-13 14:01 | 14.08863 | 52.70507 | 35927 ft | 480 kts | 213° |
| 2026-04-13 14:01 | 14.03180 | 52.66876 | 35923 ft | 481 kts | 213° |
| 2026-04-13 14:02 | 13.97496 | 52.63247 | 35929 ft | 481 kts | 213° |
| 2026-04-13 14:02 | 13.91843 | 52.59639 | 35926 ft | 481 kts | 213° |
| 2026-04-13 14:03 | 13.86158 | 52.56013 | 35925 ft | 481 kts | 213° |
| 2026-04-13 14:03 | 13.80465 | 52.52384 | 35920 ft | 481 kts | 213° |
| 2026-04-13 14:04 | 13.74765 | 52.48753 | 35926 ft | 482 kts | 213° |
| 2026-04-13 14:04 | 13.69985 | 52.45710 | 35927 ft | 482 kts | 213° |
| 2026-04-13 14:05 | 13.64277 | 52.42078 | 35923 ft | 482 kts | 213° |
| 2026-04-13 14:05 | 13.58606 | 52.38470 | 35918 ft | 483 kts | 213° |
| 2026-04-13 14:06 | 13.52899 | 52.34842 | 35920 ft | 483 kts | 213° |
| 2026-04-13 14:06 | 13.47181 | 52.31209 | 35921 ft | 483 kts | 213° |
| 2026-04-13 14:07 | 13.41457 | 52.27573 | 35919 ft | 483 kts | 213° |
| 2026-04-13 14:07 | 13.35730 | 52.23942 | 35918 ft | 484 kts | 213° |
| 2026-04-13 14:08 | 13.29996 | 52.20320 | 35936 ft | 484 kts | 213° |
| 2026-04-13 14:08 | 13.24258 | 52.16697 | 35918 ft | 484 kts | 213° |
| 2026-04-13 14:09 | 13.18522 | 52.13075 | 35913 ft | 484 kts | 213° |
| 2026-04-13 14:09 | 13.12780 | 52.09451 | 35914 ft | 484 kts | 213° |
| 2026-04-13 14:10 | 13.07077 | 52.05853 | 35924 ft | 484 kts | 213° |
| 2026-04-13 14:10 | 13.01341 | 52.02235 | 35911 ft | 484 kts | 213° |
| 2026-04-13 14:11 | 12.95590 | 51.98611 | 35908 ft | 485 kts | 213° |
| 2026-04-13 14:11 | 12.89845 | 51.94992 | 35922 ft | 485 kts | 213° |
| 2026-04-13 14:12 | 12.84092 | 51.91371 | 35924 ft | 485 kts | 213° |
| 2026-04-13 14:12 | 12.78334 | 51.87748 | 35921 ft | 485 kts | 213° |
| 2026-04-13 14:13 | 12.72573 | 51.84125 | 35904 ft | 486 kts | 213° |
| 2026-04-13 14:13 | 12.66816 | 51.80507 | 35905 ft | 486 kts | 213° |
| 2026-04-13 14:14 | 12.58196 | 51.75093 | 35902 ft | 486 kts | 213° |
| 2026-04-13 14:14 | 12.52430 | 51.71474 | 35914 ft | 486 kts | 213° |
| 2026-04-13 14:15 | 12.46653 | 51.67850 | 35916 ft | 486 kts | 213° |
| 2026-04-13 14:15 | 12.40868 | 51.64222 | 35916 ft | 487 kts | 213° |
| 2026-04-13 14:16 | 12.36370 | 51.61403 | 35915 ft | 487 kts | 213° |
| 2026-04-13 14:16 | 12.30633 | 51.57809 | 35916 ft | 487 kts | 213° |
| 2026-04-13 14:17 | 12.24852 | 51.54190 | 35912 ft | 487 kts | 213° |
| 2026-04-13 14:17 | 12.19069 | 51.50570 | 35910 ft | 487 kts | 213° |
| 2026-04-13 14:18 | 12.13280 | 51.46949 | 35907 ft | 488 kts | 213° |
| 2026-04-13 14:18 | 12.07490 | 51.43328 | 35910 ft | 488 kts | 213° |
| 2026-04-13 14:19 | 12.01695 | 51.39707 | 35911 ft | 488 kts | 213° |
| 2026-04-13 14:19 | 11.95904 | 51.36090 | 35910 ft | 488 kts | 213° |
| 2026-04-13 14:20 | 11.90140 | 51.32491 | 35908 ft | 488 kts | 213° |
| 2026-04-13 14:20 | 11.84346 | 51.28872 | 35911 ft | 488 kts | 213° |
| 2026-04-13 14:21 | 11.78547 | 51.25253 | 35915 ft | 489 kts | 213° |
| 2026-04-13 14:21 | 11.72745 | 51.21634 | 35918 ft | 489 kts | 213° |
| 2026-04-13 14:22 | 11.66944 | 51.18016 | 35924 ft | 489 kts | 213° |
| 2026-04-13 14:22 | 11.61126 | 51.14390 | 35922 ft | 489 kts | 213° |
| 2026-04-13 14:23 | 11.55319 | 51.10773 | 35922 ft | 489 kts | 213° |
| 2026-04-13 14:23 | 11.49501 | 51.07150 | 35926 ft | 489 kts | 213° |
| 2026-04-13 14:24 | 11.43727 | 51.03556 | 35928 ft | 489 kts | 213° |
| 2026-04-13 14:24 | 11.37916 | 50.99941 | 35934 ft | 489 kts | 213° |
| 2026-04-13 14:25 | 11.32107 | 50.96330 | 35933 ft | 489 kts | 213° |
| 2026-04-13 14:25 | 11.26299 | 50.92712 | 35930 ft | 489 kts | 213° |
| 2026-04-13 14:26 | 11.20481 | 50.89088 | 35929 ft | 490 kts | 213° |
| 2026-04-13 14:26 | 11.14664 | 50.85469 | 35926 ft | 490 kts | 213° |
| 2026-04-13 14:27 | 11.08841 | 50.81849 | 35925 ft | 490 kts | 213° |
| 2026-04-13 14:27 | 11.03062 | 50.78257 | 35921 ft | 490 kts | 213° |
| 2026-04-13 14:28 | 10.97236 | 50.74644 | 35924 ft | 490 kts | 213° |
| 2026-04-13 14:28 | 10.91414 | 50.71028 | 35919 ft | 490 kts | 213° |
| 2026-04-13 14:29 | 10.85594 | 50.67416 | 35922 ft | 490 kts | 213° |
| 2026-04-13 14:29 | 10.79772 | 50.63805 | 35920 ft | 490 kts | 213° |
| 2026-04-13 14:30 | 10.73950 | 50.60194 | 35913 ft | 490 kts | 213° |
| 2026-04-13 14:30 | 10.68122 | 50.56585 | 35914 ft | 490 kts | 213° |
| 2026-04-13 14:31 | 10.62330 | 50.52995 | 35917 ft | 490 kts | 213° |
| 2026-04-13 14:31 | 10.56497 | 50.49383 | 35913 ft | 490 kts | 213° |
| 2026-04-13 14:32 | 10.50669 | 50.45776 | 35914 ft | 490 kts | 213° |
| 2026-04-13 14:32 | 10.44837 | 50.42168 | 35909 ft | 491 kts | 213° |
| 2026-04-13 14:33 | 10.38997 | 50.38555 | 35913 ft | 491 kts | 213° |
| 2026-04-13 14:33 | 10.33160 | 50.34949 | 35912 ft | 491 kts | 213° |
| 2026-04-13 14:34 | 10.27324 | 50.31342 | 35911 ft | 491 kts | 213° |
| 2026-04-13 14:34 | 10.21475 | 50.27732 | 35912 ft | 492 kts | 213° |
| 2026-04-13 14:35 | 10.15627 | 50.24124 | 35910 ft | 492 kts | 213° |
| 2026-04-13 14:35 | 10.09777 | 50.20513 | 35909 ft | 492 kts | 213° |
| 2026-04-13 14:36 | 10.03928 | 50.16906 | 35911 ft | 492 kts | 213° |
| 2026-04-13 14:36 | 9.98065 | 50.13289 | 35917 ft | 493 kts | 213° |
| 2026-04-13 14:37 | 9.92241 | 50.09701 | 35915 ft | 492 kts | 213° |
| 2026-04-13 14:37 | 9.86379 | 50.06093 | 35915 ft | 492 kts | 213° |
| 2026-04-13 14:38 | 9.80527 | 50.02489 | 35913 ft | 492 kts | 213° |
| 2026-04-13 14:38 | 9.74660 | 49.98876 | 35920 ft | 492 kts | 213° |
| 2026-04-13 14:39 | 9.68801 | 49.95273 | 35918 ft | 492 kts | 213° |
| 2026-04-13 14:39 | 9.62980 | 49.91694 | 35913 ft | 492 kts | 213° |
| 2026-04-13 14:40 | 9.57122 | 49.88093 | 35917 ft | 492 kts | 213° |
| 2026-04-13 14:40 | 9.51257 | 49.84492 | 35915 ft | 492 kts | 213° |
| 2026-04-13 14:41 | 9.45389 | 49.80885 | 35909 ft | 493 kts | 213° |
| 2026-04-13 14:41 | 9.39524 | 49.77284 | 35913 ft | 493 kts | 213° |
| 2026-04-13 14:42 | 9.33656 | 49.73682 | 35909 ft | 493 kts | 213° |
| 2026-04-13 14:42 | 9.27787 | 49.70078 | 35913 ft | 493 kts | 213° |
| 2026-04-13 14:43 | 9.21955 | 49.66501 | 35911 ft | 493 kts | 213° |
| 2026-04-13 14:43 | 9.16078 | 49.62903 | 35915 ft | 493 kts | 213° |
| 2026-04-13 14:44 | 9.10193 | 49.59301 | 35912 ft | 494 kts | 213° |
| 2026-04-13 14:44 | 9.04311 | 49.55701 | 35913 ft | 494 kts | 213° |
| 2026-04-13 14:45 | 8.98433 | 49.52102 | 35915 ft | 494 kts | 213° |
| 2026-04-13 14:45 | 8.92550 | 49.48503 | 35914 ft | 494 kts | 213° |
| 2026-04-13 14:46 | 8.86665 | 49.44904 | 35918 ft | 494 kts | 213° |
| 2026-04-13 14:46 | 8.80780 | 49.41307 | 35914 ft | 494 kts | 213° |
| 2026-04-13 14:47 | 8.74885 | 49.37704 | 35914 ft | 495 kts | 213° |
| 2026-04-13 14:47 | 8.68994 | 49.34105 | 35912 ft | 495 kts | 213° |
| 2026-04-13 14:48 | 8.63135 | 49.30527 | 35911 ft | 495 kts | 213° |
| 2026-04-13 14:48 | 8.57239 | 49.26932 | 35906 ft | 495 kts | 213° |
| 2026-04-13 14:49 | 8.51330 | 49.23332 | 35905 ft | 495 kts | 213° |
| 2026-04-13 14:49 | 8.45435 | 49.19741 | 35904 ft | 495 kts | 213° |
| 2026-04-13 14:50 | 8.39536 | 49.16147 | 35901 ft | 495 kts | 213° |
| 2026-04-13 14:50 | 8.33678 | 49.12580 | 35904 ft | 495 kts | 213° |
| 2026-04-13 14:51 | 8.27772 | 49.08984 | 35906 ft | 495 kts | 213° |
| 2026-04-13 14:51 | 8.21862 | 49.05388 | 35904 ft | 496 kts | 213° |
| 2026-04-13 14:52 | 8.16954 | 49.02403 | 35914 ft | 495 kts | 213° |
| 2026-04-13 14:52 | 8.11042 | 48.98806 | 35909 ft | 496 kts | 213° |
| 2026-04-13 14:53 | 8.05135 | 48.95216 | 35916 ft | 496 kts | 213° |
| 2026-04-13 14:53 | 7.99228 | 48.91626 | 35911 ft | 496 kts | 213° |
| 2026-04-13 14:54 | 7.93318 | 48.88036 | 35916 ft | 496 kts | 213° |
| 2026-04-13 14:54 | 7.87410 | 48.84447 | 35919 ft | 496 kts | 213° |
| 2026-04-13 14:55 | 7.81498 | 48.80858 | 35913 ft | 496 kts | 213° |
| 2026-04-13 14:55 | 7.75585 | 48.77269 | 35914 ft | 496 kts | 213° |
| 2026-04-13 14:56 | 7.69680 | 48.73686 | 35911 ft | 496 kts | 213° |
| 2026-04-13 14:56 | 7.63769 | 48.70101 | 35906 ft | 496 kts | 213° |
| 2026-04-13 14:57 | 7.57896 | 48.66540 | 35908 ft | 496 kts | 213° |
| 2026-04-13 14:58 | 7.49027 | 48.61165 | 35902 ft | 496 kts | 213° |
| 2026-04-13 14:58 | 7.43112 | 48.57580 | 35897 ft | 496 kts | 213° |
| 2026-04-13 14:59 | 7.37202 | 48.54000 | 35900 ft | 496 kts | 213° |
| 2026-04-13 14:59 | 7.31293 | 48.50408 | 35896 ft | 496 kts | 213° |
| 2026-04-13 15:00 | 7.27265 | 48.47925 | 35894 ft | 496 kts | 213° |
| 2026-04-13 15:00 | 7.24206 | 48.46032 | 35895 ft | 496 kts | 213° |
| 2026-04-13 15:01 | 7.22251 | 48.44821 | 35888 ft | 496 kts | 213° |
| 2026-04-13 15:01 | 7.18995 | 48.42803 | 35875 ft | 496 kts | 213° |
| 2026-04-13 15:02 | 7.16746 | 48.41412 | 35898 ft | 496 kts | 213° |
| 2026-04-13 15:02 | 7.14191 | 48.39849 | 35938 ft | 495 kts | 212° |
| 2026-04-13 15:03 | 7.10046 | 48.37333 | 36014 ft | 494 kts | 213° |
| 2026-04-13 15:03 | 7.05157 | 48.34301 | 35918 ft | 497 kts | 213° |
| 2026-04-13 15:04 | 7.01597 | 48.32089 | 35890 ft | 498 kts | 213° |
| 2026-04-13 15:04 | 6.98609 | 48.30239 | 35887 ft | 498 kts | 213° |
| 2026-04-13 15:05 | 6.96546 | 48.28965 | 35891 ft | 498 kts | 213° |
| 2026-04-13 15:05 | 6.94070 | 48.27436 | 35897 ft | 498 kts | 213° |
| 2026-04-13 15:06 | 6.92006 | 48.26163 | 35893 ft | 498 kts | 213° |
| 2026-04-13 15:06 | 6.89170 | 48.24415 | 35890 ft | 498 kts | 213° |
| 2026-04-13 15:07 | 6.87006 | 48.23082 | 35900 ft | 498 kts | 213° |
| 2026-04-13 15:07 | 6.84845 | 48.21748 | 35926 ft | 498 kts | 213° |
| 2026-04-13 15:08 | 6.82687 | 48.20414 | 35933 ft | 498 kts | 212° |
| 2026-04-13 15:08 | 6.80650 | 48.19313 | 35764 ft | 504 kts | 205° |
| 2026-04-13 15:08 | 6.78707 | 48.18583 | 35346 ft | 511 kts | 200° |
| 2026-04-13 15:11 | 6.78098 | 48.18382 | 35404 ft | 506 kts | 200° |
| 2026-04-13 15:11 | 6.74835 | 48.17185 | 35838 ft | 493 kts | 206° |
| 2026-04-13 15:11 | 6.71891 | 48.15430 | 35896 ft | 492 kts | 218° |
| 2026-04-13 15:12 | 6.66485 | 48.11144 | 35890 ft | 498 kts | 220° |
| 2026-04-13 15:12 | 6.60833 | 48.07014 | 35890 ft | 504 kts | 216° |
| 2026-04-13 15:13 | 6.54945 | 48.03262 | 35867 ft | 501 kts | 213° |
| 2026-04-13 15:13 | 6.49009 | 47.99665 | 35873 ft | 495 kts | 213° |
| 2026-04-13 15:14 | 6.43108 | 47.96084 | 35878 ft | 495 kts | 213° |
| 2026-04-13 15:14 | 6.37216 | 47.92475 | 35878 ft | 496 kts | 213° |
| 2026-04-13 15:15 | 6.31331 | 47.88858 | 35878 ft | 496 kts | 213° |
| 2026-04-13 15:15 | 6.25466 | 47.85254 | 35878 ft | 498 kts | 213° |
| 2026-04-13 15:16 | 6.19554 | 47.81624 | 35875 ft | 498 kts | 213° |
| 2026-04-13 15:16 | 6.13624 | 47.77985 | 35874 ft | 499 kts | 213° |
| 2026-04-13 15:17 | 6.07691 | 47.74345 | 35873 ft | 500 kts | 213° |
| 2026-04-13 15:17 | 6.01741 | 47.70695 | 35875 ft | 500 kts | 213° |
| 2026-04-13 15:18 | 5.96169 | 47.67278 | 35874 ft | 500 kts | 213° |
| 2026-04-13 15:18 | 5.90218 | 47.63630 | 35875 ft | 500 kts | 213° |
| 2026-04-13 15:19 | 5.84282 | 47.59991 | 35876 ft | 500 kts | 213° |
| 2026-04-13 15:19 | 5.78338 | 47.56349 | 35871 ft | 500 kts | 213° |
| 2026-04-13 15:20 | 5.72450 | 47.52740 | 35873 ft | 499 kts | 213° |
| 2026-04-13 15:20 | 5.66507 | 47.49100 | 35874 ft | 499 kts | 213° |
| 2026-04-13 15:21 | 5.60567 | 47.45489 | 35873 ft | 499 kts | 213° |
| 2026-04-13 15:21 | 5.54613 | 47.41902 | 35875 ft | 499 kts | 213° |
| 2026-04-13 15:22 | 5.48653 | 47.38312 | 35873 ft | 499 kts | 213° |
| 2026-04-13 15:22 | 5.42703 | 47.34722 | 35874 ft | 499 kts | 213° |
| 2026-04-13 15:23 | 5.36746 | 47.31127 | 35874 ft | 499 kts | 213° |
| 2026-04-13 15:23 | 5.30778 | 47.27525 | 35876 ft | 500 kts | 213° |
| 2026-04-13 15:24 | 5.24819 | 47.23929 | 35874 ft | 500 kts | 213° |
| 2026-04-13 15:24 | 5.18857 | 47.20334 | 35874 ft | 500 kts | 213° |
| 2026-04-13 15:25 | 5.12929 | 47.16759 | 35877 ft | 500 kts | 213° |
| 2026-04-13 15:25 | 5.06964 | 47.13162 | 35875 ft | 500 kts | 213° |
| 2026-04-13 15:26 | 5.00997 | 47.09566 | 35877 ft | 500 kts | 213° |
| 2026-04-13 15:26 | 4.95030 | 47.05970 | 35878 ft | 500 kts | 213° |
| 2026-04-13 15:27 | 4.89057 | 47.02371 | 35879 ft | 500 kts | 213° |
| 2026-04-13 15:27 | 4.83126 | 46.98798 | 35880 ft | 500 kts | 213° |
| 2026-04-13 15:28 | 4.77143 | 46.95195 | 35880 ft | 500 kts | 212° |
| 2026-04-13 15:28 | 4.71171 | 46.91599 | 35881 ft | 501 kts | 212° |
| 2026-04-13 15:29 | 4.65198 | 46.88003 | 35881 ft | 501 kts | 212° |
| 2026-04-13 15:29 | 4.59224 | 46.84407 | 35882 ft | 501 kts | 212° |
| 2026-04-13 15:30 | 4.53283 | 46.80833 | 35887 ft | 501 kts | 212° |
| 2026-04-13 15:30 | 4.47306 | 46.77236 | 35884 ft | 501 kts | 212° |
| 2026-04-13 15:31 | 4.42070 | 46.74087 | 35887 ft | 501 kts | 212° |
| 2026-04-13 15:31 | 4.38361 | 46.71856 | 35886 ft | 501 kts | 212° |
| 2026-04-13 15:32 | 4.35251 | 46.69986 | 35885 ft | 501 kts | 212° |
| 2026-04-13 15:32 | 4.30866 | 46.67349 | 35887 ft | 501 kts | 213° |
| 2026-04-13 15:33 | 4.25286 | 46.63994 | 35888 ft | 501 kts | 213° |
| 2026-04-13 15:33 | 4.19305 | 46.60399 | 35886 ft | 501 kts | 213° |
| 2026-04-13 15:34 | 4.10333 | 46.55007 | 35888 ft | 501 kts | 213° |
| 2026-04-13 15:34 | 4.04348 | 46.51411 | 35890 ft | 502 kts | 213° |
| 2026-04-13 15:35 | 3.98359 | 46.47813 | 35893 ft | 502 kts | 213° |
| 2026-04-13 15:35 | 3.92411 | 46.44240 | 35894 ft | 502 kts | 213° |
| 2026-04-13 15:36 | 3.86427 | 46.40646 | 35897 ft | 502 kts | 213° |
| 2026-04-13 15:36 | 3.80442 | 46.37052 | 35897 ft | 502 kts | 213° |
| 2026-04-13 15:37 | 3.74449 | 46.33455 | 35894 ft | 502 kts | 213° |
| 2026-04-13 15:37 | 3.68459 | 46.29859 | 35899 ft | 502 kts | 213° |
| 2026-04-13 15:38 | 3.62469 | 46.26264 | 35899 ft | 502 kts | 213° |
| 2026-04-13 15:38 | 3.56478 | 46.22669 | 35898 ft | 502 kts | 213° |
| 2026-04-13 15:39 | 3.50521 | 46.19095 | 35899 ft | 502 kts | 213° |
| 2026-04-13 15:39 | 3.44528 | 46.15500 | 35903 ft | 502 kts | 213° |
| 2026-04-13 15:40 | 3.39546 | 46.12512 | 35899 ft | 502 kts | 213° |
| 2026-04-13 15:40 | 3.33554 | 46.08918 | 35905 ft | 502 kts | 213° |
| 2026-04-13 15:41 | 3.27562 | 46.05325 | 35902 ft | 502 kts | 213° |
| 2026-04-13 15:41 | 3.21573 | 46.01735 | 35900 ft | 502 kts | 213° |
| 2026-04-13 15:42 | 3.15580 | 45.98142 | 35898 ft | 502 kts | 213° |
| 2026-04-13 15:42 | 3.09587 | 45.94550 | 35902 ft | 502 kts | 213° |
| 2026-04-13 15:43 | 3.03591 | 45.90957 | 35903 ft | 502 kts | 213° |
| 2026-04-13 15:43 | 2.97597 | 45.87365 | 35903 ft | 502 kts | 213° |
| 2026-04-13 15:44 | 2.91605 | 45.83775 | 35902 ft | 502 kts | 213° |
| 2026-04-13 15:44 | 2.85609 | 45.80183 | 35900 ft | 502 kts | 213° |
| 2026-04-13 15:45 | 2.79607 | 45.76587 | 35898 ft | 503 kts | 213° |
| 2026-04-13 15:45 | 2.73602 | 45.72991 | 35899 ft | 503 kts | 213° |
| 2026-04-13 15:46 | 2.67634 | 45.69416 | 35900 ft | 503 kts | 213° |
| 2026-04-13 15:46 | 2.61629 | 45.65821 | 35901 ft | 503 kts | 213° |
| 2026-04-13 15:47 | 2.55616 | 45.62221 | 35898 ft | 503 kts | 213° |
| 2026-04-13 15:47 | 2.49610 | 45.58625 | 35900 ft | 503 kts | 213° |
| 2026-04-13 15:48 | 2.43598 | 45.55026 | 35901 ft | 503 kts | 213° |
| 2026-04-13 15:48 | 2.37589 | 45.51429 | 35898 ft | 503 kts | 213° |
| 2026-04-13 15:49 | 2.31580 | 45.47833 | 35899 ft | 503 kts | 213° |
| 2026-04-13 15:49 | 2.25576 | 45.44240 | 35895 ft | 503 kts | 213° |
| 2026-04-13 15:50 | 2.19573 | 45.40648 | 35891 ft | 502 kts | 212° |
| 2026-04-13 15:50 | 2.13612 | 45.37081 | 35888 ft | 502 kts | 212° |
| 2026-04-13 15:51 | 2.07613 | 45.33491 | 35884 ft | 502 kts | 212° |
| 2026-04-13 15:51 | 2.01618 | 45.29904 | 35886 ft | 502 kts | 213° |
| 2026-04-13 15:52 | 1.95763 | 45.26118 | 35886 ft | 501 kts | 216° |
| 2026-04-13 15:52 | 1.90003 | 45.22197 | 35885 ft | 500 kts | 216° |
| 2026-04-13 15:53 | 1.84251 | 45.18277 | 35890 ft | 500 kts | 216° |
| 2026-04-13 15:53 | 1.78485 | 45.14376 | 35892 ft | 500 kts | 216° |
| 2026-04-13 15:54 | 1.72715 | 45.10486 | 35897 ft | 500 kts | 216° |
| 2026-04-13 15:54 | 1.66959 | 45.06607 | 35898 ft | 500 kts | 216° |
| 2026-04-13 15:55 | 1.61190 | 45.02719 | 35898 ft | 500 kts | 216° |
| 2026-04-13 15:55 | 1.55465 | 44.98859 | 35894 ft | 500 kts | 216° |
| 2026-04-13 15:56 | 1.49694 | 44.94969 | 35896 ft | 499 kts | 216° |
| 2026-04-13 15:56 | 1.43931 | 44.91084 | 35895 ft | 499 kts | 216° |
| 2026-04-13 15:57 | 1.38172 | 44.87202 | 35895 ft | 499 kts | 216° |
| 2026-04-13 15:57 | 1.32409 | 44.83318 | 35895 ft | 499 kts | 216° |
| 2026-04-13 15:58 | 1.26651 | 44.79437 | 35898 ft | 499 kts | 216° |
| 2026-04-13 15:58 | 1.20894 | 44.75557 | 35899 ft | 499 kts | 216° |
| 2026-04-13 15:59 | 1.15135 | 44.71676 | 35900 ft | 499 kts | 216° |
| 2026-04-13 15:59 | 1.09413 | 44.67820 | 35899 ft | 499 kts | 216° |
| 2026-04-13 16:00 | 1.03654 | 44.63940 | 35897 ft | 499 kts | 216° |
| 2026-04-13 16:00 | 0.97898 | 44.60061 | 35900 ft | 499 kts | 216° |
| 2026-04-13 16:01 | 0.92138 | 44.56181 | 35898 ft | 499 kts | 216° |
| 2026-04-13 16:01 | 0.86383 | 44.52303 | 35899 ft | 499 kts | 216° |
| 2026-04-13 16:02 | 0.80622 | 44.48422 | 35902 ft | 499 kts | 216° |
| 2026-04-13 16:02 | 0.74861 | 44.44540 | 35905 ft | 499 kts | 216° |
| 2026-04-13 16:03 | 0.69105 | 44.40663 | 35898 ft | 499 kts | 216° |
| 2026-04-13 16:03 | 0.63329 | 44.36771 | 35901 ft | 499 kts | 216° |
| 2026-04-13 16:04 | 0.57605 | 44.32915 | 35900 ft | 499 kts | 216° |
| 2026-04-13 16:04 | 0.51851 | 44.29039 | 35902 ft | 499 kts | 216° |
| 2026-04-13 16:05 | 0.46087 | 44.25156 | 35901 ft | 499 kts | 216° |
| 2026-04-13 16:05 | 0.40329 | 44.21276 | 35899 ft | 499 kts | 215° |
| 2026-04-13 16:06 | 0.34565 | 44.17393 | 35899 ft | 499 kts | 215° |
| 2026-04-13 16:06 | 0.28817 | 44.13517 | 35901 ft | 499 kts | 216° |
| 2026-04-13 16:07 | 0.23062 | 44.09623 | 35897 ft | 499 kts | 216° |
| 2026-04-13 16:07 | 0.17311 | 44.05730 | 35900 ft | 499 kts | 215° |
| 2026-04-13 16:08 | 0.11562 | 44.01838 | 35902 ft | 499 kts | 215° |
| 2026-04-13 16:08 | 0.05851 | 43.97974 | 35902 ft | 499 kts | 215° |
| 2026-04-13 16:09 | 0.00108 | 43.94088 | 35904 ft | 498 kts | 215° |
| 2026-04-13 16:09 | -0.05633 | 43.90203 | 35907 ft | 498 kts | 215° |
| 2026-04-13 16:10 | -0.11373 | 43.86319 | 35906 ft | 498 kts | 215° |
| 2026-04-13 16:10 | -0.17106 | 43.82439 | 35907 ft | 498 kts | 215° |
| 2026-04-13 16:11 | -0.22855 | 43.78550 | 35908 ft | 498 kts | 215° |
| 2026-04-13 16:11 | -0.28592 | 43.74667 | 35906 ft | 498 kts | 215° |
| 2026-04-13 16:12 | -0.34321 | 43.70791 | 35909 ft | 498 kts | 215° |
| 2026-04-13 16:12 | -0.40020 | 43.66934 | 35909 ft | 498 kts | 215° |
| 2026-04-13 16:13 | -0.45760 | 43.63050 | 35908 ft | 498 kts | 215° |
| 2026-04-13 16:13 | -0.51489 | 43.59173 | 35910 ft | 498 kts | 215° |
| 2026-04-13 16:14 | -0.57225 | 43.55291 | 35911 ft | 498 kts | 215° |
| 2026-04-13 16:14 | -0.62962 | 43.51409 | 35909 ft | 498 kts | 215° |
| 2026-04-13 16:15 | -0.68690 | 43.47532 | 35906 ft | 498 kts | 215° |
| 2026-04-13 16:15 | -0.74422 | 43.43652 | 35908 ft | 498 kts | 215° |
| 2026-04-13 16:16 | -0.80129 | 43.39790 | 35910 ft | 498 kts | 215° |
| 2026-04-13 16:16 | -0.85867 | 43.35906 | 35911 ft | 498 kts | 215° |
| 2026-04-13 16:17 | -0.91606 | 43.32021 | 35912 ft | 498 kts | 215° |
| 2026-04-13 16:17 | -0.97344 | 43.28137 | 35910 ft | 498 kts | 215° |
| 2026-04-13 16:18 | -1.03076 | 43.24257 | 35908 ft | 498 kts | 215° |
| 2026-04-13 16:18 | -1.08812 | 43.20374 | 35912 ft | 498 kts | 215° |
| 2026-04-13 16:19 | -1.14549 | 43.16490 | 35912 ft | 498 kts | 215° |
| 2026-04-13 16:19 | -1.20287 | 43.12606 | 35912 ft | 498 kts | 215° |
| 2026-04-13 16:20 | -1.26018 | 43.08725 | 35913 ft | 498 kts | 215° |
| 2026-04-13 16:20 | -1.31743 | 43.04849 | 35907 ft | 497 kts | 215° |
| 2026-04-13 16:21 | -1.37482 | 43.00963 | 35910 ft | 497 kts | 215° |
| 2026-04-13 16:21 | -1.43204 | 42.97088 | 35912 ft | 497 kts | 215° |
| 2026-04-13 16:22 | -1.48890 | 42.93237 | 35913 ft | 496 kts | 215° |
| 2026-04-13 16:23 | -1.57470 | 42.87426 | 35913 ft | 496 kts | 215° |
| 2026-04-13 16:23 | -1.63186 | 42.83554 | 35915 ft | 496 kts | 215° |
| 2026-04-13 16:24 | -1.68891 | 42.79690 | 35913 ft | 495 kts | 215° |
| 2026-04-13 16:24 | -1.74601 | 42.75821 | 35912 ft | 495 kts | 215° |
| 2026-04-13 16:25 | -1.79340 | 42.72611 | 35913 ft | 495 kts | 215° |
| 2026-04-13 16:25 | -1.85967 | 42.68120 | 35914 ft | 495 kts | 215° |
| 2026-04-13 16:26 | -1.91670 | 42.64255 | 35916 ft | 495 kts | 215° |
| 2026-04-13 16:26 | -1.97373 | 42.60390 | 35916 ft | 495 kts | 215° |
| 2026-04-13 16:27 | -2.03060 | 42.56516 | 35916 ft | 494 kts | 216° |
| 2026-04-13 16:27 | -2.07759 | 42.53251 | 35916 ft | 494 kts | 216° |
| 2026-04-13 16:28 | -2.13398 | 42.49326 | 35914 ft | 494 kts | 216° |
| 2026-04-13 16:28 | -2.19052 | 42.45402 | 35915 ft | 494 kts | 216° |
| 2026-04-13 16:29 | -2.24676 | 42.41454 | 35916 ft | 493 kts | 217° |
| 2026-04-13 16:29 | -2.30194 | 42.37379 | 35916 ft | 493 kts | 218° |
| 2026-04-13 16:30 | -2.35688 | 42.33283 | 35917 ft | 493 kts | 218° |
| 2026-04-13 16:30 | -2.41207 | 42.29192 | 35919 ft | 493 kts | 218° |
| 2026-04-13 16:31 | -2.46684 | 42.25150 | 35917 ft | 493 kts | 218° |
| 2026-04-13 16:31 | -2.52209 | 42.21078 | 35920 ft | 492 kts | 218° |
| 2026-04-13 16:32 | -2.57722 | 42.17013 | 35921 ft | 492 kts | 218° |
| 2026-04-13 16:32 | -2.63238 | 42.12943 | 35922 ft | 492 kts | 218° |
| 2026-04-13 16:33 | -2.68752 | 42.08875 | 35922 ft | 492 kts | 218° |
| 2026-04-13 16:33 | -2.74264 | 42.04807 | 35925 ft | 492 kts | 218° |
| 2026-04-13 16:34 | -2.79775 | 42.00740 | 35923 ft | 492 kts | 218° |
| 2026-04-13 16:34 | -2.85258 | 41.96693 | 35918 ft | 492 kts | 218° |
| 2026-04-13 16:35 | -2.90770 | 41.92625 | 35920 ft | 493 kts | 218° |
| 2026-04-13 16:35 | -2.96306 | 41.88538 | 35928 ft | 494 kts | 218° |
| 2026-04-13 16:36 | -3.01844 | 41.84448 | 35928 ft | 495 kts | 218° |
| 2026-04-13 16:36 | -3.07388 | 41.80354 | 35927 ft | 495 kts | 218° |
| 2026-04-13 16:37 | -3.12896 | 41.76285 | 35928 ft | 495 kts | 218° |
| 2026-04-13 16:37 | -3.18436 | 41.72193 | 35928 ft | 495 kts | 218° |
| 2026-04-13 16:38 | -3.23972 | 41.68103 | 35932 ft | 494 kts | 218° |
| 2026-04-13 16:38 | -3.29500 | 41.64019 | 35931 ft | 494 kts | 218° |
| 2026-04-13 16:39 | -3.35018 | 41.59942 | 35932 ft | 493 kts | 218° |
| 2026-04-13 16:39 | -3.40503 | 41.55887 | 35932 ft | 492 kts | 218° |
| 2026-04-13 16:40 | -3.46012 | 41.51815 | 35933 ft | 492 kts | 218° |
| 2026-04-13 16:40 | -3.51513 | 41.47748 | 35931 ft | 492 kts | 218° |
| 2026-04-13 16:41 | -3.57015 | 41.43680 | 35932 ft | 491 kts | 218° |
| 2026-04-13 16:41 | -3.62507 | 41.39618 | 35931 ft | 491 kts | 218° |
| 2026-04-13 16:42 | -3.68004 | 41.35552 | 35935 ft | 490 kts | 218° |
| 2026-04-13 16:42 | -3.73488 | 41.31495 | 35933 ft | 490 kts | 218° |
| 2026-04-13 16:43 | -3.78962 | 41.27445 | 35931 ft | 489 kts | 218° |
| 2026-04-13 16:43 | -3.84439 | 41.23391 | 35931 ft | 489 kts | 218° |
| 2026-04-13 16:44 | -3.89902 | 41.19347 | 35935 ft | 489 kts | 218° |
| 2026-04-13 16:44 | -3.95336 | 41.15323 | 35929 ft | 488 kts | 218° |
| 2026-04-13 16:45 | -4.00866 | 41.11362 | 35929 ft | 489 kts | 214° |
| 2026-04-13 16:45 | -4.06670 | 41.07816 | 35934 ft | 489 kts | 212° |
| 2026-04-13 16:46 | -4.12513 | 41.04313 | 35930 ft | 489 kts | 213° |
| 2026-04-13 16:46 | -4.18349 | 41.00782 | 35933 ft | 489 kts | 213° |
| 2026-04-13 16:47 | -4.24163 | 40.97239 | 35932 ft | 489 kts | 213° |
| 2026-04-13 16:47 | -4.29976 | 40.93691 | 35934 ft | 489 kts | 213° |
| 2026-04-13 16:48 | -4.35788 | 40.90145 | 35932 ft | 489 kts | 213° |
| 2026-04-13 16:48 | -4.41556 | 40.86627 | 35931 ft | 489 kts | 213° |
| 2026-04-13 16:49 | -4.47365 | 40.83083 | 35932 ft | 488 kts | 213° |
| 2026-04-13 16:49 | -4.53166 | 40.79543 | 35932 ft | 488 kts | 213° |
| 2026-04-13 16:50 | -4.58964 | 40.76003 | 35934 ft | 487 kts | 213° |
| 2026-04-13 16:50 | -4.64760 | 40.72464 | 35931 ft | 487 kts | 213° |
| 2026-04-13 16:51 | -4.70544 | 40.68932 | 35933 ft | 486 kts | 213° |
| 2026-04-13 16:51 | -4.76318 | 40.65405 | 35935 ft | 486 kts | 213° |
| 2026-04-13 16:52 | -4.82075 | 40.61849 | 35940 ft | 485 kts | 216° |
| 2026-04-13 16:52 | -4.87403 | 40.57797 | 35938 ft | 483 kts | 220° |
| 2026-04-13 16:53 | -4.92652 | 40.53598 | 35935 ft | 483 kts | 220° |
| 2026-04-13 16:53 | -4.97925 | 40.49421 | 35934 ft | 483 kts | 220° |
| 2026-04-13 16:54 | -5.03146 | 40.45316 | 35915 ft | 467 kts | 220° |
| 2026-04-13 16:54 | -5.05671 | 40.43332 | 35755 ft | 457 kts | 220° |
| 2026-04-13 16:54 | -5.08159 | 40.41374 | 35370 ft | 451 kts | 220° |
| 2026-04-13 16:54 | -5.10617 | 40.39439 | 34924 ft | 447 kts | 220° |
| 2026-04-13 16:55 | -5.13084 | 40.37554 | 34470 ft | 445 kts | 217° |
| 2026-04-13 16:55 | -5.15657 | 40.35842 | 33995 ft | 443 kts | 214° |
| 2026-04-13 16:55 | -5.18293 | 40.34222 | 33456 ft | 442 kts | 213° |
| 2026-04-13 16:55 | -5.20928 | 40.32645 | 32960 ft | 439 kts | 213° |
| 2026-04-13 16:56 | -5.23536 | 40.31082 | 32493 ft | 436 kts | 213° |
| 2026-04-13 16:56 | -5.26121 | 40.29515 | 32013 ft | 433 kts | 213° |
| 2026-04-13 16:56 | -5.28684 | 40.27944 | 31537 ft | 430 kts | 213° |
| 2026-04-13 16:56 | -5.31219 | 40.26375 | 31093 ft | 427 kts | 213° |
| 2026-04-13 16:57 | -5.33741 | 40.24806 | 30614 ft | 425 kts | 213° |
| 2026-04-13 16:57 | -5.36243 | 40.23245 | 30154 ft | 423 kts | 213° |
| 2026-04-13 16:57 | -5.38712 | 40.21702 | 29628 ft | 421 kts | 213° |
| 2026-04-13 16:57 | -5.41187 | 40.20155 | 29133 ft | 418 kts | 213° |
| 2026-04-13 16:58 | -5.43654 | 40.18613 | 28647 ft | 415 kts | 213° |
| 2026-04-13 16:58 | -5.46094 | 40.17088 | 28173 ft | 413 kts | 213° |
| 2026-04-13 16:58 | -5.48522 | 40.15571 | 27727 ft | 410 kts | 213° |
| 2026-04-13 16:58 | -5.50932 | 40.14065 | 27263 ft | 407 kts | 213° |
| 2026-04-13 16:59 | -5.53333 | 40.12564 | 26809 ft | 405 kts | 213° |
| 2026-04-13 16:59 | -5.55718 | 40.11074 | 26373 ft | 402 kts | 213° |
| 2026-04-13 16:59 | -5.58087 | 40.09594 | 25913 ft | 400 kts | 213° |
| 2026-04-13 16:59 | -5.60450 | 40.08119 | 25458 ft | 399 kts | 212° |
| 2026-04-13 17:00 | -5.62805 | 40.06647 | 25016 ft | 398 kts | 212° |
| 2026-04-13 17:00 | -5.65151 | 40.05179 | 24552 ft | 396 kts | 212° |
| 2026-04-13 17:00 | -5.67496 | 40.03715 | 24108 ft | 396 kts | 212° |
| 2026-04-13 17:00 | -5.69829 | 40.02257 | 23654 ft | 395 kts | 212° |
| 2026-04-13 17:01 | -5.72157 | 40.00801 | 23154 ft | 395 kts | 211° |
| 2026-04-13 17:01 | -5.74484 | 39.99346 | 22682 ft | 393 kts | 211° |
| 2026-04-13 17:01 | -5.76796 | 39.97900 | 22226 ft | 390 kts | 211° |
| 2026-04-13 17:01 | -5.79096 | 39.96460 | 21788 ft | 388 kts | 211° |
| 2026-04-13 17:02 | -5.81383 | 39.95028 | 21343 ft | 386 kts | 211° |
| 2026-04-13 17:02 | -5.83663 | 39.93601 | 20897 ft | 384 kts | 211° |
| 2026-04-13 17:02 | -5.85925 | 39.92185 | 20468 ft | 383 kts | 211° |
| 2026-04-13 17:02 | -5.88184 | 39.90773 | 20044 ft | 382 kts | 211° |
| 2026-04-13 17:03 | -5.90432 | 39.89367 | 19596 ft | 381 kts | 211° |
| 2026-04-13 17:03 | -5.92686 | 39.87958 | 19149 ft | 381 kts | 211° |
| 2026-04-13 17:03 | -5.94931 | 39.86553 | 18708 ft | 381 kts | 210° |
| 2026-04-13 17:03 | -5.97179 | 39.85144 | 18255 ft | 380 kts | 210° |
| 2026-04-13 17:04 | -5.99424 | 39.83738 | 17773 ft | 380 kts | 210° |
| 2026-04-13 17:04 | -6.01637 | 39.82352 | 17287 ft | 379 kts | 210° |
| 2026-04-13 17:04 | -6.03867 | 39.80955 | 16847 ft | 377 kts | 210° |
| 2026-04-13 17:04 | -6.06092 | 39.79561 | 16407 ft | 376 kts | 211° |
| 2026-04-13 17:05 | -6.08309 | 39.78171 | 15963 ft | 374 kts | 210° |
| 2026-04-13 17:05 | -6.10519 | 39.76786 | 15514 ft | 373 kts | 210° |
| 2026-04-13 17:05 | -6.12714 | 39.75412 | 15089 ft | 372 kts | 210° |
| 2026-04-13 17:05 | -6.14911 | 39.74037 | 14659 ft | 371 kts | 210° |
| 2026-04-13 17:06 | -6.17102 | 39.72665 | 14207 ft | 371 kts | 210° |
| 2026-04-13 17:06 | -6.19294 | 39.71291 | 13776 ft | 371 kts | 210° |
| 2026-04-13 17:06 | -6.21476 | 39.69923 | 13278 ft | 370 kts | 210° |
| 2026-04-13 17:06 | -6.23661 | 39.68553 | 12823 ft | 368 kts | 210° |
| 2026-04-13 17:07 | -6.25768 | 39.67234 | 12386 ft | 354 kts | 211° |
| 2026-04-13 17:07 | -6.27817 | 39.65948 | 11961 ft | 339 kts | 210° |
| 2026-04-13 17:07 | -6.29776 | 39.64718 | 11564 ft | 326 kts | 210° |
| 2026-04-13 17:07 | -6.31690 | 39.63518 | 11201 ft | 324 kts | 210° |
| 2026-04-13 17:08 | -6.33608 | 39.62316 | 10829 ft | 325 kts | 210° |
| 2026-04-13 17:08 | -6.35530 | 39.61111 | 10477 ft | 325 kts | 210° |
| 2026-04-13 17:08 | -6.37424 | 39.59923 | 10327 ft | 317 kts | 210° |
| 2026-04-13 17:08 | -6.39279 | 39.58759 | 10175 ft | 310 kts | 210° |
| 2026-04-13 17:09 | -6.41091 | 39.57622 | 10036 ft | 303 kts | 210° |
| 2026-04-13 17:09 | -6.42860 | 39.56513 | 9835 ft | 298 kts | 210° |
| 2026-04-13 17:09 | -6.44624 | 39.55408 | 9476 ft | 299 kts | 210° |
| 2026-04-13 17:09 | -6.46386 | 39.54302 | 9132 ft | 299 kts | 210° |
| 2026-04-13 17:10 | -6.48160 | 39.53189 | 8784 ft | 300 kts | 210° |
| 2026-04-13 17:10 | -6.49910 | 39.52091 | 8440 ft | 300 kts | 210° |
| 2026-04-13 17:10 | -6.51681 | 39.50979 | 8112 ft | 300 kts | 210° |
| 2026-04-13 17:10 | -6.53441 | 39.49874 | 7817 ft | 298 kts | 210° |
| 2026-04-13 17:11 | -6.55194 | 39.48774 | 7523 ft | 297 kts | 210° |
| 2026-04-13 17:11 | -6.56933 | 39.47681 | 7320 ft | 291 kts | 210° |
| 2026-04-13 17:11 | -6.58628 | 39.46617 | 7104 ft | 286 kts | 210° |
| 2026-04-13 17:11 | -6.60308 | 39.45562 | 6820 ft | 283 kts | 210° |
| 2026-04-13 17:12 | -6.61977 | 39.44515 | 6476 ft | 283 kts | 210° |
| 2026-04-13 17:12 | -6.63651 | 39.43465 | 6109 ft | 284 kts | 210° |
| 2026-04-13 17:12 | -6.65315 | 39.42420 | 5698 ft | 276 kts | 210° |
| 2026-04-13 17:12 | -6.66855 | 39.41341 | 5202 ft | 265 kts | 219° |
| 2026-04-13 17:13 | -6.68136 | 39.40078 | 4721 ft | 257 kts | 223° |
| 2026-04-13 17:13 | -6.69360 | 39.38799 | 4207 ft | 250 kts | 223° |
| 2026-04-13 17:13 | -6.70558 | 39.37570 | 3728 ft | 243 kts | 223° |
| 2026-04-13 17:13 | -6.71726 | 39.36376 | 3253 ft | 236 kts | 222° |
| 2026-04-13 17:14 | -6.72872 | 39.35217 | 2985 ft | 230 kts | 221° |
| 2026-04-13 17:14 | -6.73982 | 39.34100 | 2903 ft | 225 kts | 221° |
| 2026-04-13 17:14 | -6.75085 | 39.32994 | 2818 ft | 221 kts | 221° |
| 2026-04-13 17:14 | -6.76148 | 39.31928 | 2785 ft | 213 kts | 221° |
| 2026-04-13 17:15 | -6.76851 | 39.31226 | 2822 ft | 214 kts | 221° |
| 2026-04-13 17:15 | -6.77880 | 39.30197 | 2725 ft | 203 kts | 221° |
| 2026-04-13 17:15 | -6.78845 | 39.29229 | 2599 ft | 190 kts | 221° |
| 2026-04-13 17:15 | -6.79754 | 39.28319 | 2288 ft | 180 kts | 221° |
| 2026-04-13 17:16 | -6.80639 | 39.27400 | 1775 ft | 181 kts | 225° |
| 2026-04-13 17:16 | -6.81453 | 39.26483 | 1453 ft | 169 kts | 220° |
| 2026-04-13 17:16 | -6.82286 | 39.25729 | 1252 ft | 155 kts | 218° |
| 2026-04-13 17:16 | -6.83014 | 39.25005 | 1033 ft | 143 kts | 221° |
| 2026-04-13 17:17 | -6.83716 | 39.24329 | 828 ft | 138 kts | 221° |
| 2026-04-13 17:17 | -6.84400 | 39.23631 | 725 ft | 144 kts | 222° |
| 2026-04-13 17:17 | -6.85127 | 39.22931 | 577 ft | 146 kts | 222° |
| 2026-04-13 17:17 | -6.85849 | 39.22220 | 369 ft | 146 kts | 223° |
| 2026-04-13 17:18 | -6.86531 | 39.21535 | 214 ft | 130 kts | 224° |
| 2026-04-13 17:18 | -6.87118 | 39.20956 | 180 ft | 99 kts | 226° |
| 2026-04-13 17:18 | -6.87481 | 39.20592 | 195 ft | 30 kts | 225° |
| 2026-04-13 17:18 | -6.87582 | 39.20475 | 199 ft | 13 kts | 252° |
| 2026-04-13 17:19 | -6.87562 | 39.20414 | 200 ft | 10 kts | 305° |
| 2026-04-13 17:19 | -6.87544 | 39.20389 | 203 ft | 0 kts | 311° |
| 2026-04-13 17:20 | -6.87543 | 39.20388 | 203 ft | 2 kts | 311° |
| 2026-04-13 17:20 | -6.87517 | 39.20360 | 202 ft | 2 kts | 320° |
| 2026-04-13 17:20 | -6.87498 | 39.20361 | 200 ft | 5 kts | 8° |
| 2026-04-13 17:20 | -6.87441 | 39.20388 | 204 ft | 13 kts | 33° |
| 2026-04-13 17:21 | -6.87361 | 39.20466 | 203 ft | 18 kts | 45° |
| 2026-04-13 17:21 | -6.87252 | 39.20576 | 202 ft | 27 kts | 45° |
| 2026-04-13 17:21 | -6.87102 | 39.20724 | 199 ft | 28 kts | 44° |
| 2026-04-13 17:21 | -6.86958 | 39.20868 | 183 ft | 29 kts | 45° |
| 2026-04-13 17:22 | -6.86813 | 39.21014 | 202 ft | 29 kts | 45° |
| 2026-04-13 17:22 | -6.86738 | 39.21056 | 194 ft | 9 kts | 2° |
| 2026-04-13 17:22 | -6.86679 | 39.21064 | 197 ft | 9 kts | 21° |
| 2026-04-13 17:22 | -6.86631 | 39.21101 | 203 ft | 9 kts | 41° |
| 2026-04-13 17:23 | -6.86588 | 39.21144 | 200 ft | 9 kts | 45° |
| 2026-04-13 17:23 | -6.86545 | 39.21188 | 195 ft | 9 kts | 45° |
| 2026-04-13 17:23 | -6.86505 | 39.21225 | 203 ft | 5 kts | 29° |
| 2026-04-13 17:23 | -6.86470 | 39.21219 | 199 ft | 6 kts | 330° |
| 2026-04-13 17:24 | -6.86438 | 39.21198 | 200 ft | 2 kts | 316° |
| 2026-04-13 17:24 | -6.86426 | 39.21188 | 198 ft | 3 kts | 319° |
| 2026-04-13 17:24 | -6.86420 | 39.21182 | 195 ft | 0 kts | 316° |